createdAt,value
2022-12-27T00:02:25.812Z,7.24
2022-12-27T00:04:54.360Z,7.23
2022-12-27T00:07:21.023Z,7.21
2022-12-27T00:09:47.735Z,7.19
2022-12-27T00:12:14.394Z,7.19
2022-12-27T00:14:41.325Z,7.16
2022-12-27T00:17:07.843Z,7.16
2022-12-27T00:19:34.280Z,7.22
2022-12-27T00:22:02.337Z,7.26
2022-12-27T00:24:29.030Z,7.28
2022-12-27T00:26:55.563Z,7.28
2022-12-27T00:29:21.997Z,7.34
2022-12-27T00:31:48.554Z,7.31
2022-12-27T00:34:15.119Z,7.29
2022-12-27T00:36:41.567Z,7.23
2022-12-27T00:39:08.003Z,7.20
2022-12-27T00:41:34.530Z,7.17
2022-12-27T00:44:00.961Z,7.24
2022-12-27T00:46:27.472Z,7.25
2022-12-27T00:48:53.972Z,7.24
2022-12-27T00:51:22.297Z,7.18
2022-12-27T00:53:48.893Z,7.15
2022-12-27T00:56:16.929Z,7.18
2022-12-27T00:58:43.362Z,7.23
2022-12-27T01:01:13.972Z,7.25
2022-12-27T01:03:40.558Z,7.28
2022-12-27T01:06:07.493Z,7.28
2022-12-27T01:08:33.952Z,7.29
2022-12-27T01:11:00.544Z,7.29
2022-12-27T01:13:27.154Z,7.30
2022-12-27T01:15:53.607Z,7.27
2022-12-27T01:18:20.050Z,7.27
2022-12-27T01:20:46.529Z,7.28
2022-12-27T01:23:13.157Z,7.32
2022-12-27T01:25:39.615Z,7.38
2022-12-27T01:28:06.043Z,7.42
2022-12-27T01:30:32.485Z,7.41
2022-12-27T01:32:58.960Z,7.42
2022-12-27T01:35:27.077Z,7.39
2022-12-27T01:37:53.786Z,7.37
2022-12-27T01:40:20.328Z,7.33
2022-12-27T01:42:53.007Z,7.34
2022-12-27T01:45:20.558Z,7.40
2022-12-27T01:47:46.973Z,7.43
2022-12-27T01:50:19.503Z,7.38
2022-12-27T01:52:55.114Z,7.45
2022-12-27T01:55:36.488Z,7.44
2022-12-27T01:58:11.342Z,7.41
2022-12-27T02:00:38.225Z,7.44
2022-12-27T02:03:04.881Z,7.38
2022-12-27T02:05:31.396Z,7.39
2022-12-27T02:07:57.795Z,6.75
2022-12-27T02:10:24.480Z,7.44
2022-12-27T02:12:50.908Z,7.40
2022-12-27T02:15:17.341Z,7.39
2022-12-27T02:17:43.766Z,7.37
2022-12-27T02:20:14.664Z,7.37
2022-12-27T02:23:15.368Z,7.33
2022-12-27T02:25:51.111Z,7.37
2022-12-27T02:28:33.080Z,7.29
2022-12-27T02:31:01.054Z,7.28
2022-12-27T02:33:28.256Z,7.27
2022-12-27T02:35:56.449Z,7.29
2022-12-27T02:38:23.999Z,7.30
2022-12-27T02:41:09.232Z,7.29
2022-12-27T02:43:54.407Z,7.31
2022-12-27T02:46:40.202Z,7.29
2022-12-27T02:50:04.024Z,7.27
2022-12-27T02:52:52.050Z,7.27
2022-12-27T02:55:21.046Z,7.24
2022-12-27T02:58:06.234Z,7.19
2022-12-27T03:00:53.929Z,7.16
2022-12-27T03:03:38.345Z,7.15
2022-12-27T03:06:40.423Z,7.07
2022-12-27T03:09:10.052Z,7.03
2022-12-27T03:12:00.627Z,6.97
2022-12-27T03:14:47.362Z,6.87
2022-12-27T03:17:14.951Z,6.77
2022-12-27T03:20:09.023Z,6.77
2022-12-27T03:22:54.117Z,6.76
2022-12-27T03:25:29.790Z,6.72
2022-12-27T03:28:16.526Z,6.68
2022-12-27T03:31:01.618Z,6.68
2022-12-27T03:33:28.161Z,6.72
2022-12-27T03:36:23.872Z,6.74
2022-12-27T03:39:13.587Z,6.74
2022-12-27T03:41:59.034Z,6.65
2022-12-27T03:44:25.839Z,6.63
2022-12-27T03:46:58.987Z,6.56
2022-12-27T03:49:25.408Z,6.53
2022-12-27T03:51:51.828Z,6.54
2022-12-27T03:54:31.013Z,6.51
2022-12-27T03:56:58.118Z,6.49
2022-12-27T03:59:24.532Z,6.47
2022-12-27T04:01:51.176Z,6.39
2022-12-27T04:04:17.746Z,6.38
2022-12-27T04:06:44.221Z,6.32
2022-12-27T04:09:32.409Z,6.30
2022-12-27T04:12:17.854Z,6.26
2022-12-27T04:15:02.968Z,6.29
2022-12-27T04:17:48.361Z,6.31
2022-12-27T04:20:33.340Z,6.31
2022-12-27T04:23:18.508Z,6.30
2022-12-27T04:26:03.715Z,6.28
2022-12-27T04:28:48.743Z,6.25
2022-12-27T04:31:33.878Z,6.22
2022-12-27T04:34:18.824Z,6.18
2022-12-27T04:36:45.337Z,6.09
2022-12-27T04:39:11.890Z,6.00
2022-12-27T04:41:57.757Z,5.96
2022-12-27T04:44:42.863Z,5.92
2022-12-27T04:47:30.595Z,5.88
2022-12-27T04:50:15.749Z,5.87
2022-12-27T04:53:00.975Z,5.88
2022-12-27T04:55:28.298Z,5.91
2022-12-27T04:57:55.052Z,5.92
2022-12-27T05:00:40.782Z,5.89
2022-12-27T05:03:08.559Z,5.89
2022-12-27T05:05:35.408Z,5.89
2022-12-27T05:08:20.514Z,5.83
2022-12-27T05:11:05.713Z,5.79
2022-12-27T05:13:50.872Z,5.76
2022-12-27T05:16:17.337Z,5.77
2022-12-27T05:18:43.792Z,5.77
2022-12-27T05:21:10.390Z,5.81
2022-12-27T05:23:58.833Z,5.96
2022-12-27T05:26:29.024Z,6.25
2022-12-27T05:28:56.164Z,6.06
2022-12-27T05:31:22.867Z,5.81
2022-12-27T05:33:49.658Z,5.64
2022-12-27T05:36:16.132Z,5.42
2022-12-27T05:38:42.609Z,5.31
2022-12-27T05:41:09.097Z,5.22
2022-12-27T05:43:35.647Z,5.18
2022-12-27T05:46:05.987Z,5.14
2022-12-27T05:48:32.534Z,5.08
2022-12-27T05:50:59.169Z,5.02
2022-12-27T05:53:25.611Z,5.03
2022-12-27T05:55:55.760Z,4.97
2022-12-27T05:58:22.521Z,4.90
2022-12-27T06:00:49.040Z,4.86
2022-12-27T06:03:15.609Z,4.79
2022-12-27T06:05:42.132Z,4.75
2022-12-27T06:08:08.960Z,4.69
2022-12-27T06:10:35.615Z,4.63
2022-12-27T06:13:02.133Z,4.55
2022-12-27T06:15:28.821Z,4.49
2022-12-27T06:17:55.427Z,4.40
2022-12-27T06:20:21.904Z,4.35
2022-12-27T06:22:48.335Z,4.29
2022-12-27T06:25:14.776Z,4.21
2022-12-27T06:27:41.749Z,4.09
2022-12-27T06:30:08.583Z,3.99
2022-12-27T06:32:35.288Z,3.99
2022-12-27T06:35:01.820Z,3.89
2022-12-27T06:37:29.847Z,3.86
2022-12-27T06:39:56.355Z,3.86
2022-12-27T06:42:23.150Z,3.81
2022-12-27T06:44:49.861Z,3.78
2022-12-27T06:47:16.596Z,3.68
2022-12-27T06:49:43.015Z,3.64
2022-12-27T06:52:09.468Z,3.60
2022-12-27T06:54:35.942Z,3.60
2022-12-27T06:57:02.353Z,3.57
2022-12-27T06:59:29.038Z,3.57
2022-12-27T07:01:55.740Z,3.56
2022-12-27T07:04:22.395Z,3.53
2022-12-27T07:06:48.865Z,3.55
2022-12-27T07:09:15.407Z,3.54
2022-12-27T07:11:41.845Z,3.50
2022-12-27T07:14:08.738Z,3.42
2022-12-27T07:16:35.252Z,3.41
2022-12-27T07:19:01.779Z,3.46
2022-12-27T07:21:29.232Z,3.49
2022-12-27T07:23:55.733Z,3.51
2022-12-27T07:26:23.213Z,3.54
2022-12-27T07:28:49.693Z,3.58
2022-12-27T07:31:17.186Z,3.57
2022-12-27T07:33:43.841Z,3.54
2022-12-27T07:36:12.568Z,3.56
2022-12-27T07:38:39.079Z,3.58
2022-12-27T07:41:05.823Z,3.61
2022-12-27T07:43:33.478Z,3.58
2022-12-27T07:46:10.195Z,3.60
2022-12-27T07:48:36.859Z,3.65
2022-12-27T07:51:03.449Z,3.64
2022-12-27T07:53:30.085Z,3.65
2022-12-27T07:55:56.786Z,3.68
2022-12-27T07:58:24.473Z,3.71
2022-12-27T08:00:51.377Z,3.77
2022-12-27T08:03:17.925Z,3.82
2022-12-27T08:05:47.864Z,3.86
2022-12-27T08:08:15.269Z,3.85
2022-12-27T08:10:41.779Z,3.88
2022-12-27T08:13:08.302Z,3.90
2022-12-27T08:15:34.829Z,3.92
2022-12-27T08:18:01.482Z,3.92
2022-12-27T08:20:28.953Z,3.88
2022-12-27T08:22:55.478Z,3.89
2022-12-27T08:25:22.013Z,3.90
2022-12-27T08:27:48.476Z,3.90
2022-12-27T08:30:14.944Z,3.98
2022-12-27T08:32:41.395Z,4.06
2022-12-27T08:35:41.914Z,4.04
2022-12-27T08:37:54.460Z,4.03
2022-12-27T08:40:21.172Z,4.09
2022-12-27T08:42:47.682Z,4.30
2022-12-27T08:45:14.284Z,4.60
2022-12-27T08:47:40.740Z,4.98
2022-12-27T08:50:07.527Z,5.42
2022-12-27T08:52:34.199Z,5.98
2022-12-27T08:55:00.804Z,6.24
2022-12-27T08:57:27.234Z,6.31
2022-12-27T08:59:54.670Z,6.31
2022-12-27T09:02:21.194Z,6.19
2022-12-27T09:04:47.778Z,6.00
2022-12-27T09:07:14.286Z,5.82
2022-12-27T09:09:40.766Z,5.66
2022-12-27T09:12:09.218Z,5.41
2022-12-27T09:14:36.162Z,5.32
2022-12-27T09:17:02.595Z,5.04
2022-12-27T09:19:29.189Z,4.90
2022-12-27T09:21:55.668Z,4.70
2022-12-27T09:24:22.156Z,4.61
2022-12-27T09:26:48.617Z,4.52
2022-12-27T09:29:15.147Z,4.43
2022-12-27T09:31:41.582Z,4.42
2022-12-27T09:34:09.488Z,4.29
2022-12-27T09:36:37.370Z,4.27
2022-12-27T09:39:03.939Z,4.16
2022-12-27T09:42:45.906Z,4.11
2022-12-27T09:44:35.227Z,4.07
2022-12-27T09:47:08.712Z,4.04
2022-12-27T09:49:38.988Z,4.03
2022-12-27T09:52:25.816Z,3.99
2022-12-27T09:54:52.257Z,3.99
2022-12-27T09:57:21.475Z,3.98
2022-12-27T09:59:49.098Z,4.00
2022-12-27T10:02:20.333Z,4.13
2022-12-27T10:05:18.401Z,4.17
2022-12-27T10:07:33.295Z,4.21
2022-12-27T10:10:05.324Z,4.34
2022-12-27T10:12:50.654Z,4.42
2022-12-27T10:15:28.500Z,4.43
2022-12-27T10:18:11.777Z,4.51
2022-12-27T10:20:55.425Z,4.62
2022-12-27T10:23:23.811Z,4.65
2022-12-27T10:25:52.049Z,4.66
2022-12-27T10:28:23.032Z,4.57
2022-12-27T10:30:49.520Z,4.58
2022-12-27T10:33:28.806Z,4.51
2022-12-27T10:35:55.301Z,4.59
2022-12-27T10:38:22.207Z,4.55
2022-12-27T10:40:54.207Z,4.48
2022-12-27T10:43:25.429Z,4.43
2022-12-27T10:45:51.910Z,4.37
2022-12-27T10:48:22.479Z,4.34
2022-12-27T10:50:55.858Z,4.28
2022-12-27T10:53:32.988Z,4.24
2022-12-27T10:56:08.738Z,4.17
2022-12-27T10:58:35.164Z,4.12
2022-12-27T11:01:01.615Z,4.05
2022-12-27T11:03:30.808Z,4.01
2022-12-27T11:06:04.431Z,4.04
2022-12-27T11:08:30.992Z,4.10
2022-12-27T11:11:16.278Z,4.10
2022-12-27T11:13:42.765Z,4.11
2022-12-27T11:16:17.080Z,4.19
2022-12-27T11:18:45.332Z,4.26
2022-12-27T11:21:21.190Z,4.37
2022-12-27T11:23:53.568Z,4.44
2022-12-27T11:26:21.392Z,4.49
2022-12-27T11:28:50.961Z,4.54
2022-12-27T11:31:18.215Z,4.58
2022-12-27T11:33:48.732Z,4.57
2022-12-27T11:36:15.741Z,4.53
2022-12-27T11:38:43.110Z,4.62
2022-12-27T11:41:11.448Z,4.55
2022-12-27T11:43:50.100Z,4.58
2022-12-27T11:46:26.701Z,4.44
2022-12-27T11:48:57.472Z,4.27
2022-12-27T11:51:23.940Z,4.13
2022-12-27T11:54:00.219Z,4.06
2022-12-27T11:56:27.143Z,3.96
2022-12-27T11:59:12.491Z,3.92
2022-12-27T12:01:42.019Z,4.05
2022-12-27T12:04:20.764Z,4.06
2022-12-27T12:06:51.007Z,3.98
2022-12-27T12:09:20.560Z,3.93
2022-12-27T12:11:54.664Z,3.99
2022-12-27T12:14:27.699Z,3.88
2022-12-27T12:16:57.412Z,3.93
2022-12-27T12:19:36.419Z,3.84
2022-12-27T12:22:12.917Z,3.74
2022-12-27T12:24:41.701Z,3.71
2022-12-27T12:27:26.474Z,3.71
2022-12-27T12:30:11.702Z,3.73
2022-12-27T12:32:38.183Z,3.78
2022-12-27T12:35:23.413Z,3.84
2022-12-27T12:37:49.917Z,3.91
2022-12-27T12:40:22.537Z,3.93
2022-12-27T12:43:07.838Z,3.94
2022-12-27T12:45:34.484Z,3.98
2022-12-27T12:48:01.025Z,4.13
2022-12-27T12:50:46.066Z,4.19
2022-12-27T12:53:21.849Z,4.24
2022-12-27T12:55:58.859Z,4.34
2022-12-27T12:58:37.583Z,4.49
2022-12-27T13:01:24.457Z,4.67
2022-12-27T13:03:50.967Z,4.83
2022-12-27T13:06:19.972Z,5.03
2022-12-27T13:08:55.435Z,5.08
2022-12-27T13:11:25.050Z,5.04
2022-12-27T13:13:52.085Z,5.01
2022-12-27T13:16:18.639Z,5.00
2022-12-27T13:18:51.031Z,4.93
2022-12-27T13:21:32.832Z,4.78
2022-12-27T13:24:02.434Z,4.73
2022-12-27T13:26:48.802Z,4.73
2022-12-27T13:29:21.329Z,4.54
2022-12-27T13:31:58.136Z,4.41
2022-12-27T13:34:27.964Z,4.41
2022-12-27T13:37:12.785Z,4.35
2022-12-27T13:39:57.675Z,4.34
2022-12-27T13:42:24.138Z,4.38
2022-12-27T13:44:55.012Z,4.46
2022-12-27T13:47:27.717Z,4.65
2022-12-27T13:50:00.185Z,4.69
2022-12-27T13:52:35.757Z,4.73
2022-12-27T13:55:23.132Z,4.60
2022-12-27T13:57:49.658Z,4.56
2022-12-27T14:00:17.384Z,4.50
2022-12-27T14:02:51.413Z,4.39
2022-12-27T14:05:27.689Z,4.30
2022-12-27T14:08:23.155Z,4.21
2022-12-27T14:10:53.875Z,4.14
2022-12-27T14:13:38.904Z,4.04
2022-12-27T14:16:15.972Z,3.97
2022-12-27T14:19:01.418Z,3.95
2022-12-27T14:21:46.552Z,3.93
2022-12-27T14:24:31.407Z,3.99
2022-12-27T14:27:07.011Z,4.01
2022-12-27T14:29:52.350Z,3.98
2022-12-27T14:32:27.905Z,3.97
2022-12-27T14:35:13.231Z,3.95
2022-12-27T14:37:58.586Z,4.06
2022-12-27T14:40:34.410Z,4.08
2022-12-27T14:43:13.739Z,4.11
2022-12-27T14:45:40.230Z,3.96
2022-12-27T14:48:19.003Z,3.94
2022-12-27T14:50:49.417Z,3.89
2022-12-27T14:53:21.981Z,3.82
2022-12-27T14:56:07.202Z,3.75
2022-12-27T14:58:41.238Z,3.71
2022-12-27T15:01:11.035Z,3.68
2022-12-27T15:03:49.572Z,3.66
2022-12-27T15:06:16.113Z,3.54
2022-12-27T15:08:42.783Z,3.46
2022-12-27T15:11:18.324Z,3.36
2022-12-27T15:16:46.830Z,3.19
2022-12-27T15:19:20.662Z,3.13
2022-12-27T15:22:16.817Z,3.06
2022-12-27T15:24:50.329Z,3.02
2022-12-27T15:27:32.314Z,2.98
2022-12-27T15:30:08.116Z,3.01
2022-12-27T15:32:37.775Z,3.04
2022-12-27T15:35:24.032Z,3.06
2022-12-27T15:37:51.095Z,3.00
2022-12-27T15:40:24.627Z,2.91
2022-12-27T15:42:56.241Z,2.86
2022-12-27T15:45:42.617Z,2.80
2022-12-27T15:48:12.084Z,2.75
2022-12-27T15:50:38.570Z,2.65
2022-12-27T15:53:09.046Z,2.58
2022-12-27T15:55:54.473Z,2.48
2022-12-27T15:58:23.342Z,2.39
2022-12-27T16:01:26.157Z,2.29
2022-12-27T16:07:32.701Z,2.12
2022-12-27T16:09:59.448Z,2.08
2022-12-27T16:12:38.600Z,2.05
2022-12-27T16:15:23.882Z,2.03
2022-12-27T16:17:56.249Z,1.99
2022-12-27T16:20:23.579Z,1.98
2022-12-27T16:23:16.508Z,1.99
2022-12-27T16:25:42.920Z,2.07
2022-12-27T16:28:09.315Z,2.15
2022-12-27T16:30:35.791Z,2.19
2022-12-27T16:33:03.587Z,2.22
2022-12-27T16:35:30.189Z,2.26
2022-12-27T16:37:56.714Z,2.30
2022-12-27T16:40:24.501Z,2.31
2022-12-27T16:42:54.065Z,2.30
2022-12-27T16:45:23.648Z,2.29
2022-12-27T16:47:56.610Z,2.30
2022-12-27T16:50:25.837Z,2.31
2022-12-27T16:53:06.371Z,2.34
2022-12-27T16:55:52.666Z,2.37
2022-12-27T16:58:31.321Z,2.38
2022-12-27T17:00:58.315Z,2.44
2022-12-27T17:03:32.145Z,2.45
2022-12-27T17:06:30.525Z,2.44
2022-12-27T17:08:46.018Z,2.39
2022-12-27T17:11:18.529Z,2.36
2022-12-27T17:13:53.010Z,2.32
2022-12-27T17:16:23.055Z,2.28
2022-12-27T17:18:52.042Z,2.26
2022-12-27T17:21:30.912Z,2.26
2022-12-27T17:23:58.157Z,2.23
2022-12-27T17:26:27.686Z,2.21
2022-12-27T17:28:57.852Z,2.19
2022-12-27T17:31:26.443Z,2.21
2022-12-27T17:33:56.314Z,2.24
2022-12-27T17:36:25.994Z,2.28
2022-12-27T17:38:52.484Z,2.32
2022-12-27T17:41:45.016Z,2.26
2022-12-27T17:44:37.753Z,2.21
2022-12-27T17:47:22.824Z,2.17
2022-12-27T17:49:49.299Z,2.12
2022-12-27T17:52:37.910Z,2.05
2022-12-27T17:55:41.880Z,2.00
2022-12-27T17:58:09.507Z,1.95
2022-12-27T18:00:37.277Z,1.90
2022-12-27T18:03:07.105Z,1.86
2022-12-27T18:05:34.178Z,1.81
2022-12-27T18:08:04.667Z,1.77
2022-12-27T18:10:31.810Z,1.74
2022-12-27T18:12:59.257Z,1.72
2022-12-27T18:15:26.112Z,1.70
2022-12-27T18:17:56.260Z,1.71
2022-12-27T18:20:25.753Z,1.70
2022-12-27T18:23:12.870Z,1.74
2022-12-27T18:25:45.592Z,1.74
2022-12-27T18:28:18.990Z,1.73
2022-12-27T18:30:47.355Z,1.70
2022-12-27T18:33:14.211Z,1.64
2022-12-27T18:35:43.342Z,1.59
2022-12-27T18:38:09.776Z,1.49
2022-12-27T18:40:36.295Z,1.37
2022-12-27T18:43:02.777Z,1.26
2022-12-27T18:45:30.158Z,1.21
2022-12-27T18:47:57.115Z,1.17
2022-12-27T18:50:24.565Z,1.19
2022-12-27T18:53:04.490Z,1.22
2022-12-27T18:55:32.200Z,1.26
2022-12-27T18:58:02.374Z,1.30
2022-12-27T19:00:29.394Z,1.34
2022-12-27T19:02:56.076Z,1.39
2022-12-27T19:05:23.971Z,1.44
2022-12-27T19:07:57.684Z,1.47
2022-12-27T19:10:24.847Z,1.49
2022-12-27T19:12:52.295Z,1.51
2022-12-27T19:15:28.096Z,1.51
2022-12-27T19:18:01.885Z,1.55
2022-12-27T19:20:29.717Z,1.55
2022-12-27T19:22:57.349Z,1.57
2022-12-27T19:25:27.885Z,1.56
2022-12-27T19:27:58.250Z,1.54
2022-12-27T19:30:43.576Z,1.52
2022-12-27T19:33:14.617Z,1.50
2022-12-27T19:35:41.502Z,1.47
2022-12-27T19:38:11.055Z,1.46
2022-12-27T19:40:39.132Z,1.47
2022-12-27T19:43:05.659Z,1.48
2022-12-27T19:45:32.316Z,1.51
2022-12-27T19:47:58.795Z,1.51
2022-12-27T19:50:25.264Z,1.54
2022-12-27T19:52:52.375Z,1.55
2022-12-27T19:55:21.549Z,1.54
2022-12-27T19:57:48.252Z,1.53
2022-12-27T20:00:18.067Z,1.53
2022-12-27T20:02:44.860Z,1.52
2022-12-27T20:05:13.000Z,1.52
2022-12-27T20:07:39.523Z,1.51
2022-12-27T20:10:06.431Z,1.49
2022-12-27T20:12:33.096Z,1.47
2022-12-27T20:14:59.596Z,1.47
2022-12-27T20:17:26.278Z,1.48
2022-12-27T20:19:52.735Z,1.50
2022-12-27T20:22:19.315Z,1.52
2022-12-27T20:24:47.339Z,1.54
2022-12-27T20:27:13.811Z,1.55
2022-12-27T20:29:40.402Z,1.56
2022-12-27T20:32:07.014Z,1.59
2022-12-27T20:34:33.560Z,1.57
2022-12-27T20:37:00.605Z,1.57
2022-12-27T20:39:27.184Z,1.56
2022-12-27T20:41:54.048Z,1.53
2022-12-27T20:44:20.955Z,1.43
2022-12-27T20:46:50.796Z,1.34
2022-12-27T20:49:17.658Z,1.28
2022-12-27T20:51:45.845Z,1.21
2022-12-27T20:54:13.428Z,1.14
2022-12-27T20:56:39.995Z,1.10
2022-12-27T20:59:07.204Z,0.98
2022-12-27T21:01:34.111Z,0.88
2022-12-27T21:04:01.078Z,0.82
2022-12-27T21:06:28.254Z,0.80
2022-12-27T21:08:57.729Z,0.77
2022-12-27T21:11:31.603Z,0.73
2022-12-27T21:14:30.021Z,0.65
2022-12-27T21:16:57.302Z,0.59
2022-12-27T21:19:23.907Z,0.53
2022-12-27T21:21:50.541Z,0.45
2022-12-27T21:24:17.073Z,0.38
2022-12-27T21:26:43.616Z,0.30
2022-12-27T21:29:10.292Z,0.25
2022-12-27T21:31:36.965Z,0.27
2022-12-27T21:34:03.521Z,0.23
2022-12-27T21:36:31.078Z,0.20
2022-12-27T21:38:57.675Z,0.16
2022-12-27T21:41:25.033Z,0.12
2022-12-27T21:43:51.938Z,0.02
2022-12-27T21:46:34.689Z,-0.02
2022-12-27T21:49:02.217Z,-0.09
2022-12-27T21:51:28.975Z,-0.15
2022-12-27T21:53:55.507Z,-0.20
2022-12-27T21:56:22.126Z,-0.20
2022-12-27T21:58:48.626Z,-0.19
2022-12-27T22:01:16.032Z,-0.18
2022-12-27T22:03:43.599Z,-0.18
2022-12-27T22:06:14.041Z,-0.16
2022-12-27T22:08:41.043Z,-0.15
2022-12-27T22:11:07.780Z,-0.11
2022-12-27T22:13:35.203Z,-0.12
2022-12-27T22:16:02.359Z,-0.13
2022-12-27T22:18:35.415Z,-0.15
2022-12-27T22:21:02.852Z,-0.16
2022-12-27T22:23:32.805Z,-0.15
2022-12-27T22:25:59.280Z,-0.13
2022-12-27T22:28:26.076Z,-0.13
2022-12-27T22:30:52.631Z,-0.12
2022-12-27T22:33:19.172Z,-0.17
2022-12-27T22:35:45.627Z,-0.24
2022-12-27T22:38:12.432Z,-0.34
2022-12-27T22:40:45.840Z,-0.38
2022-12-27T22:43:13.296Z,-0.40
2022-12-27T22:45:45.470Z,-0.67
2022-12-27T22:48:14.377Z,-0.48
2022-12-27T22:50:40.981Z,-0.55
2022-12-27T22:53:07.710Z,-0.60
2022-12-27T22:55:34.314Z,-0.60
2022-12-27T22:58:00.776Z,-0.58
2022-12-27T23:00:27.344Z,-0.55
2022-12-27T23:02:56.915Z,-0.51
2022-12-27T23:05:23.473Z,-0.52
2022-12-27T23:08:05.145Z,-0.54
2022-12-27T23:10:33.437Z,-0.57
2022-12-27T23:12:59.942Z,-0.59
2022-12-27T23:15:26.423Z,-0.63
2022-12-27T23:17:53.115Z,-0.64
2022-12-27T23:20:19.741Z,-0.63
2022-12-27T23:22:46.209Z,-0.67
2022-12-27T23:25:12.700Z,-0.68
2022-12-27T23:27:39.246Z,-0.67
2022-12-27T23:30:06.096Z,-0.66
2022-12-27T23:32:32.599Z,-0.68
2022-12-27T23:34:59.184Z,-0.70
2022-12-27T23:37:25.625Z,-0.73
2022-12-27T23:39:52.355Z,-0.75
2022-12-27T23:42:18.862Z,-0.75
2022-12-27T23:44:54.991Z,-0.75
2022-12-27T23:47:21.710Z,-0.82
2022-12-27T23:49:48.426Z,-0.85
2022-12-27T23:52:15.018Z,-0.87
2022-12-27T23:54:41.939Z,-0.90
2022-12-27T23:57:20.141Z,-0.98
2022-12-27T23:59:47.487Z,-1.03
